Time,TemperatureF,DewpointF,PressureIn,WindDirection,WindDirectionDegrees,WindSpeedMPH,WindSpeedGustMPH,Humidity,HourlyPrecipIn,Conditions,Clouds,dailyrainin,SoftwareType,DateUTC
2013-08-14 00:00:00,63.3,61.0,29.73,NE,37,0.0,-999.0,93,-99.99,,,0.17,weatherlink.com 1.10,2013-08-14 04:00:00,
2013-08-14 00:15:00,63.5,62.0,29.73,NNE,33,0.0,-999.0,93,-99.99,,,0.00,weatherlink.com 1.10,2013-08-14 04:15:00,
2013-08-14 00:30:00,63.8,62.0,29.73,NNE,24,0.0,-999.0,93,-99.99,,,0.00,weatherlink.com 1.10,2013-08-14 04:30:00,
2013-08-14 00:45:00,64.1,62.0,29.73,NNE,22,0.0,-999.0,92,-99.99,,,0.00,weatherlink.com 1.10,2013-08-14 04:45:00,
2013-08-14 01:00:00,63.8,62.0,29.73,NNE,22,0.0,-999.0,92,-99.99,,,0.00,weatherlink.com 1.10,2013-08-14 05:00:00,
2013-08-14 01:15:00,63.4,61.0,29.73,NNE,18,0.0,-999.0,92,-99.99,,,0.00,weatherlink.com 1.10,2013-08-14 05:15:00,
2013-08-14 01:30:00,63.1,61.0,29.73,NNE,17,1.0,-999.0,92,-99.99,,,0.00,weatherlink.com 1.10,2013-08-14 05:30:00,
2013-08-14 01:45:00,62.9,61.0,29.73,North,359,1.0,-999.0,92,-99.99,,,0.00,weatherlink.com 1.10,2013-08-14 05:45:00,
2013-08-14 02:00:00,62.5,60.0,29.73,NNE,29,0.0,-999.0,92,-99.99,,,0.00,weatherlink.com 1.10,2013-08-14 06:00:00,
2013-08-14 02:15:00,62.1,60.0,29.73,North,9,5.0,-999.0,91,-99.99,,,0.00,weatherlink.com 1.10,2013-08-14 06:15:00,
2013-08-14 02:30:00,61.5,59.0,29.72,NNE,20,1.0,-999.0,90,-99.99,,,0.00,weatherlink.com 1.10,2013-08-14 06:30:00,
2013-08-14 02:45:00,60.7,58.0,29.73,WNW,303,7.0,-999.0,89,-99.99,,,0.00,weatherlink.com 1.10,2013-08-14 06:45:00,
2013-08-14 03:00:00,60.0,57.0,29.73,NNW,329,1.0,-999.0,89,-99.99,,,0.00,weatherlink.com 1.10,2013-08-14 07:00:00,
2013-08-14 03:15:00,59.4,56.0,29.73,NW,326,4.0,-999.0,89,-99.99,,,0.00,weatherlink.com 1.10,2013-08-14 07:15:00,
2013-08-14 03:30:00,59.0,56.0,29.74,NNE,21,0.0,-999.0,89,-99.99,,,0.00,weatherlink.com 1.10,2013-08-14 07:30:00,
2013-08-14 03:45:00,58.7,56.0,29.74,NNE,23,0.0,-999.0,89,-99.99,,,0.00,weatherlink.com 1.10,2013-08-14 07:45:00,
2013-08-14 04:00:00,58.1,55.0,29.74,North,359,0.0,-999.0,89,-99.99,,,0.00,weatherlink.com 1.10,2013-08-14 08:00:00,
2013-08-14 04:30:00,57.2,54.0,29.75,North,359,0.0,-999.0,88,-99.99,,,0.00,weatherlink.com 1.10,2013-08-14 08:30:00,
2013-08-14 04:45:00,56.8,53.0,29.74,North,4,0.0,-999.0,88,-99.99,,,0.00,weatherlink.com 1.10,2013-08-14 08:45:00,
2013-08-14 05:00:00,56.6,53.0,29.74,North,349,0.0,-999.0,87,-99.99,,,0.00,weatherlink.com 1.10,2013-08-14 09:00:00,
2013-08-14 05:15:00,56.4,53.0,29.74,NNE,18,0.0,-999.0,87,-99.99,,,0.00,weatherlink.com 1.10,2013-08-14 09:15:00,
2013-08-14 05:30:00,56.0,52.0,29.75,NNE,17,0.0,-999.0,87,-99.99,,,0.00,weatherlink.com 1.10,2013-08-14 09:30:00,
2013-08-14 05:45:00,55.5,52.0,29.75,NNE,17,0.0,-999.0,87,-99.99,,,0.00,weatherlink.com 1.10,2013-08-14 09:45:00,
2013-08-14 06:00:00,55.2,51.0,29.77,NNE,17,0.0,-999.0,87,-99.99,,,0.00,weatherlink.com 1.10,2013-08-14 10:00:00,
2013-08-14 06:15:00,55.0,51.0,29.77,NNE,17,0.0,-999.0,87,-99.99,,,0.00,weatherlink.com 1.10,2013-08-14 10:15:00,
2013-08-14 06:30:00,54.8,51.0,29.78,NNE,16,0.0,-999.0,87,-99.99,,,0.00,weatherlink.com 1.10,2013-08-14 10:30:00,
2013-08-14 06:45:00,54.9,51.0,29.79,North,354,1.0,-999.0,87,-99.99,,,0.00,weatherlink.com 1.10,2013-08-14 10:45:00,
2013-08-14 07:00:00,54.8,51.0,29.79,NNW,341,0.0,-999.0,86,-99.99,,,0.00,weatherlink.com 1.10,2013-08-14 11:00:00,
2013-08-14 07:15:00,55.2,51.0,29.79,NNW,343,0.0,-999.0,85,-99.99,,,0.00,weatherlink.com 1.10,2013-08-14 11:15:00,
2013-08-14 07:31:00,55.6,51.0,29.79,NNW,340,1.0,-999.0,84,-99.99,,,0.00,weatherlink.com 1.10,2013-08-14 11:31:00,
2013-08-14 07:45:00,55.9,51.0,29.79,NNW,341,0.0,-999.0,84,-99.99,,,0.00,weatherlink.com 1.10,2013-08-14 11:45:00,
2013-08-14 08:00:00,56.5,52.0,29.79,NNE,20,0.0,-999.0,84,-99.99,,,0.00,weatherlink.com 1.10,2013-08-14 12:00:00,
2013-08-14 08:15:00,57.2,52.0,29.80,NE,43,0.0,-999.0,82,-99.99,,,0.00,weatherlink.com 1.10,2013-08-14 12:15:00,
2013-08-14 08:30:00,57.7,52.0,29.80,North,354,0.0,-999.0,81,-99.99,,,0.00,weatherlink.com 1.10,2013-08-14 12:30:00,
2013-08-14 08:45:00,58.2,51.0,29.80,ENE,64,1.0,-999.0,78,-99.99,,,0.00,weatherlink.com 1.10,2013-08-14 12:45:00,
2013-08-14 09:00:00,59.0,52.0,29.80,NW,325,4.0,-999.0,77,-99.99,,,0.00,weatherlink.com 1.10,2013-08-14 13:00:00,
2013-08-14 09:15:00,59.4,52.0,29.80,ENE,64,8.0,-999.0,77,-99.99,,,0.00,weatherlink.com 1.10,2013-08-14 13:15:00,
2013-08-14 09:30:00,59.9,51.0,29.80,NNW,339,2.0,-999.0,73,-99.99,,,0.00,weatherlink.com 1.10,2013-08-14 13:30:00,
2013-08-14 09:45:00,60.8,52.0,29.80,North,354,0.0,-999.0,73,-99.99,,,0.00,weatherlink.com 1.10,2013-08-14 13:45:00,
2013-08-14 10:00:00,61.8,52.0,29.80,North,350,4.0,-999.0,70,-99.99,,,0.00,weatherlink.com 1.10,2013-08-14 14:00:00,
2013-08-14 10:15:00,63.6,52.0,29.80,NNW,334,2.0,-999.0,66,-99.99,,,0.00,weatherlink.com 1.10,2013-08-14 14:15:00,
2013-08-14 10:30:00,64.4,51.0,29.81,NE,41,9.0,-999.0,62,-99.99,,,0.00,weatherlink.com 1.10,2013-08-14 14:30:00,
2013-08-14 10:45:00,64.6,51.0,29.81,North,359,4.0,-999.0,62,-99.99,,,0.00,weatherlink.com 1.10,2013-08-14 14:45:00,
2013-08-14 11:00:00,64.2,50.0,29.82,NNE,14,1.0,-999.0,60,-99.99,,,0.00,weatherlink.com 1.10,2013-08-14 15:00:00,
2013-08-14 11:15:00,64.6,51.0,29.82,NE,50,4.0,-999.0,62,-99.99,,,0.00,weatherlink.com 1.10,2013-08-14 15:15:00,
2013-08-14 11:30:00,65.3,51.0,29.82,North,354,0.0,-999.0,61,-99.99,,,0.00,weatherlink.com 1.10,2013-08-14 15:30:00,
2013-08-14 11:45:00,65.7,51.0,29.81,NNE,29,0.0,-999.0,59,-99.99,,,0.00,weatherlink.com 1.10,2013-08-14 15:45:00,
2013-08-14 12:00:00,67.0,52.0,29.81,North,359,5.0,-999.0,59,-99.99,,,0.00,weatherlink.com 1.10,2013-08-14 16:00:00,
2013-08-14 12:15:00,66.9,51.0,29.82,WNW,291,8.0,-999.0,58,-99.99,,,0.00,weatherlink.com 1.10,2013-08-14 16:15:00,
2013-08-14 12:30:00,66.6,52.0,29.82,NNW,339,10.0,-999.0,59,-99.99,,,0.00,weatherlink.com 1.10,2013-08-14 16:30:00,
2013-08-14 12:45:00,67.1,52.0,29.81,WSW,237,8.0,-999.0,58,-99.99,,,0.00,weatherlink.com 1.10,2013-08-14 16:45:00,
2013-08-14 13:00:00,67.8,53.0,29.83,NNW,345,5.0,-999.0,59,-99.99,,,0.00,weatherlink.com 1.10,2013-08-14 17:00:00,
2013-08-14 13:15:00,66.4,51.0,29.82,NNE,32,6.0,-999.0,59,-99.99,,,0.00,weatherlink.com 1.10,2013-08-14 17:15:00,
2013-08-14 13:30:00,68.1,52.0,29.82,ENE,63,3.0,-999.0,57,-99.99,,,0.00,weatherlink.com 1.10,2013-08-14 17:30:00,
2013-08-14 13:45:00,68.6,53.0,29.82,North,349,2.0,-999.0,58,-99.99,,,0.00,weatherlink.com 1.10,2013-08-14 17:45:00,
2013-08-14 14:00:00,68.7,53.0,29.82,NE,47,8.0,-999.0,57,-99.99,,,0.00,weatherlink.com 1.10,2013-08-14 18:00:00,
2013-08-14 14:15:00,69.6,52.0,29.82,North,359,2.0,-999.0,54,-99.99,,,0.00,weatherlink.com 1.10,2013-08-14 18:15:00,
2013-08-14 14:30:00,70.3,52.0,29.82,North,350,8.0,-999.0,53,-99.99,,,0.00,weatherlink.com 1.10,2013-08-14 18:30:00,
2013-08-14 14:45:00,69.5,52.0,29.83,NNW,339,11.0,-999.0,54,-99.99,,,0.00,weatherlink.com 1.10,2013-08-14 18:45:00,
2013-08-14 15:15:00,70.4,53.0,29.82,NE,40,0.0,-999.0,55,-99.99,,,0.00,weatherlink.com 1.10,2013-08-14 19:15:00,
2013-08-14 15:30:00,70.7,53.0,29.82,NNW,347,5.0,-999.0,54,-99.99,,,0.00,weatherlink.com 1.10,2013-08-14 19:30:00,
2013-08-14 15:45:00,69.9,53.0,29.82,NE,54,5.0,-999.0,55,-99.99,,,0.00,weatherlink.com 1.10,2013-08-14 19:45:00,
2013-08-14 16:00:00,71.0,52.0,29.83,NW,320,5.0,-999.0,52,-99.99,,,0.00,weatherlink.com 1.10,2013-08-14 20:00:00,
2013-08-14 16:15:00,71.0,53.0,29.82,NE,34,4.0,-999.0,54,-99.99,,,0.00,weatherlink.com 1.10,2013-08-14 20:15:00,
2013-08-14 16:30:00,71.3,53.0,29.83,NE,47,2.0,-999.0,52,-99.99,,,0.00,weatherlink.com 1.10,2013-08-14 20:30:00,
2013-08-14 17:15:00,69.2,52.0,29.84,ENE,71,5.0,-999.0,54,-99.99,,,0.00,weatherlink.com 1.10,2013-08-14 21:15:00,
2013-08-14 17:30:00,68.7,52.0,29.85,WNW,291,1.0,-999.0,56,-99.99,,,0.00,weatherlink.com 1.10,2013-08-14 21:30:00,
2013-08-14 17:45:00,68.2,52.0,29.86,NE,50,1.0,-999.0,56,-99.99,,,0.00,weatherlink.com 1.10,2013-08-14 21:45:00,
2013-08-14 18:16:00,67.3,51.0,29.87,North,4,7.0,-999.0,56,-99.99,,,0.00,weatherlink.com 1.10,2013-08-14 22:16:00,
2013-08-14 18:30:00,66.9,51.0,29.87,NNE,12,2.0,-999.0,57,-99.99,,,0.00,weatherlink.com 1.10,2013-08-14 22:30:00,
2013-08-14 19:00:00,66.6,51.0,29.89,NNE,14,0.0,-999.0,58,-99.99,,,0.00,weatherlink.com 1.10,2013-08-14 23:00:00,
2013-08-14 19:15:00,66.2,51.0,29.90,NNE,29,5.0,-999.0,59,-99.99,,,0.00,weatherlink.com 1.10,2013-08-14 23:15:00,
2013-08-14 19:30:00,65.4,51.0,29.90,WNW,286,7.0,-999.0,61,-99.99,,,0.00,weatherlink.com 1.10,2013-08-14 23:30:00,
2013-08-14 19:45:00,65.1,51.0,29.91,NNE,13,0.0,-999.0,61,-99.99,,,0.00,weatherlink.com 1.10,2013-08-14 23:45:00,
2013-08-14 20:01:00,64.5,51.0,29.91,NE,36,2.0,-999.0,62,-99.99,,,0.00,weatherlink.com 1.10,2013-08-15 00:01:00,
2013-08-14 20:15:00,63.9,51.0,29.92,WNW,291,7.0,-999.0,64,-99.99,,,0.00,weatherlink.com 1.10,2013-08-15 00:15:00,
2013-08-14 20:30:00,63.3,51.0,29.93,NNW,337,5.0,-999.0,65,-99.99,,,0.00,weatherlink.com 1.10,2013-08-15 00:30:00,
2013-08-14 20:45:00,62.8,51.0,29.94,NNW,336,0.0,-999.0,66,-99.99,,,0.00,weatherlink.com 1.10,2013-08-15 00:45:00,
2013-08-14 21:00:00,62.4,51.0,29.95,NNE,21,0.0,-999.0,67,-99.99,,,0.00,weatherlink.com 1.10,2013-08-15 01:00:00,
2013-08-14 21:15:00,61.8,51.0,29.96,NNW,343,2.0,-999.0,69,-99.99,,,0.00,weatherlink.com 1.10,2013-08-15 01:15:00,
2013-08-14 21:30:00,61.4,51.0,29.97,NNW,340,0.0,-999.0,69,-99.99,,,0.00,weatherlink.com 1.10,2013-08-15 01:30:00,
2013-08-14 21:45:00,61.3,51.0,29.98,North,359,5.0,-999.0,70,-99.99,,,0.00,weatherlink.com 1.10,2013-08-15 01:45:00,
2013-08-14 22:01:00,61.0,51.0,29.98,NW,306,3.0,-999.0,70,-99.99,,,0.00,weatherlink.com 1.10,2013-08-15 02:01:00,
2013-08-14 22:16:00,60.6,51.0,29.98,NNE,18,0.0,-999.0,71,-99.99,,,0.00,weatherlink.com 1.10,2013-08-15 02:16:00,
2013-08-14 22:30:00,60.2,51.0,29.99,North,10,0.0,-999.0,72,-99.99,,,0.00,weatherlink.com 1.10,2013-08-15 02:30:00,
2013-08-14 22:45:00,60.0,51.0,29.99,North,8,0.0,-999.0,72,-99.99,,,0.00,weatherlink.com 1.10,2013-08-15 02:45:00,
2013-08-14 23:00:00,59.6,51.0,30.00,North,359,0.0,-999.0,74,-99.99,,,0.00,weatherlink.com 1.10,2013-08-15 03:00:00,
2013-08-14 23:15:00,59.0,51.0,30.00,North,4,0.0,-999.0,75,-99.99,,,0.00,weatherlink.com 1.10,2013-08-15 03:15:00,
2013-08-14 23:30:00,59.0,51.0,30.01,NNE,23,2.0,-999.0,75,-99.99,,,0.00,weatherlink.com 1.10,2013-08-15 03:30:00,
2013-08-14 23:45:00,59.0,51.0,30.01,North,8,0.0,-999.0,75,-99.99,,,0.00,weatherlink.com 1.10,2013-08-15 03:45:00,